Time;durP1;ratioP1;P1;durP2;ratioP2;P2;SDS_P1;SDS_P2;PMS_P1;PMS_P2;Temp;Humidity;BMP_temperature;BMP_pressure;BME280_temperature;BME280_humidity;BME280_pressure;Samples;Min_cycle;Max_cycle;Signal;HPM_P1;HPM_P2
2022/02/22 00:00:07;;;;;;;;;;;5.60;99.90;;;;;;5105368;28;20026;-83
2022/02/22 00:02:33;;;;;;;;;;;5.60;99.90;;;;;;5079738;28;19912;-83
2022/02/22 00:04:58;;;;;;;;;;;5.50;99.90;;;;;;5102135;28;19927;-80
2022/02/22 00:07:24;;;;;;;;;;;5.50;99.90;;;;;;5106710;28;19951;-81
2022/02/22 00:09:49;;;;;;;;;;;5.50;99.90;;;;;;5082786;28;20024;-79
2022/02/22 00:12:16;;;;;;;;;;;5.50;99.90;;;;;;5105327;28;19994;-79
2022/02/22 00:14:42;;;;;;;;;;;5.40;99.90;;;;;;5101531;28;19916;-82
2022/02/22 00:17:08;;;;;;;;;;;5.40;99.90;;;;;;5112145;28;19916;-82
2022/02/22 00:19:34;;;;;;;;;;;5.50;99.90;;;;;;5100539;28;19926;-81
2022/02/22 00:21:59;;;;;;;;;;;5.40;99.90;;;;;;5088722;28;20010;-82
2022/02/22 00:24:25;;;;;;;;;;;5.50;99.90;;;;;;5084892;28;19926;-81
2022/02/22 00:26:50;;;;;;;;;;;5.50;99.90;;;;;;5085450;28;20374;-82
2022/02/22 00:29:16;;;;;;;;;;;5.50;99.90;;;;;;5076101;28;19923;-82
2022/02/22 00:31:42;;;;;;;;;;;5.40;99.90;;;;;;5078645;28;20374;-82
2022/02/22 00:34:07;;;;;;;;;;;5.50;99.90;;;;;;5098347;28;19956;-81
2022/02/22 00:36:34;;;;;;;;;;;5.40;99.90;;;;;;5090653;28;20254;-81
2022/02/22 00:38:59;;;;;;;;;;;5.40;99.90;;;;;;5092498;28;19916;-80
2022/02/22 00:41:25;;;;;;;;;;;5.50;99.90;;;;;;5092103;28;19968;-80
2022/02/22 00:43:51;;;;;;;;;;;5.50;99.90;;;;;;5104894;28;19916;-79
2022/02/22 00:46:17;;;;;;;;;;;5.50;99.90;;;;;;5098808;28;19927;-81
2022/02/22 00:48:42;;;;;;;;;;;5.50;99.90;;;;;;5103603;28;20379;-78
2022/02/22 00:51:08;;;;;;;;;;;5.50;99.90;;;;;;5107949;28;19923;-82
2022/02/22 00:53:33;;;;;;;;;;;5.50;99.90;;;;;;5102119;28;19919;-81
2022/02/22 00:55:59;;;;;;;;;;;5.50;99.90;;;;;;5077175;28;19912;-81
2022/02/22 00:58:24;;;;;;;;;;;5.50;99.90;;;;;;5083579;28;20247;-80
2022/02/22 01:00:50;;;;;;;;;;;5.50;99.90;;;;;;5102402;28;20345;-79
2022/02/22 01:03:15;;;;;;;;;;;5.60;99.90;;;;;;5083788;28;19916;-83
2022/02/22 01:05:41;;;;;;;;;;;5.50;99.90;;;;;;5106298;28;19922;-81
2022/02/22 01:08:06;;;;;;;;;;;5.50;99.90;;;;;;5112070;28;19923;-80
2022/02/22 01:10:32;;;;;;;;;;;5.40;99.90;;;;;;5109177;28;19916;-81
2022/02/22 01:12:58;;;;;;;;;;;5.40;99.90;;;;;;5098447;28;19923;-83
2022/02/22 01:15:24;;;;;;;;;;;5.30;99.90;;;;;;5109536;28;20057;-80
2022/02/22 01:17:49;;;;;;;;;;;5.30;99.90;;;;;;5078238;28;19919;-83
2022/02/22 01:20:15;;;;;;;;;;;5.30;99.90;;;;;;5083484;28;19916;-81
2022/02/22 01:22:41;;;;;;;;;;;5.40;99.90;;;;;;5106772;28;20555;-80
2022/02/22 01:25:07;;;;;;;;;;;5.30;99.90;;;;;;5098490;28;20043;-79
2022/02/22 01:27:33;;;;;;;;;;;5.30;99.90;;;;;;5091514;28;20231;-82
2022/02/22 01:29:59;;;;;;;;;;;5.20;99.90;;;;;;5108315;28;19920;-78
2022/02/22 01:32:24;;;;;;;;;;;5.10;99.90;;;;;;5085381;28;19955;-79
2022/02/22 01:34:50;;;;;;;;;;;5.10;99.90;;;;;;5102197;28;20011;-81
2022/02/22 01:37:16;;;;;;;;;;;5.10;99.90;;;;;;5103953;28;19922;-80
2022/02/22 01:39:41;;;;;;;;;;;5.10;99.90;;;;;;5083769;28;20261;-80
2022/02/22 01:42:07;;;;;;;;;;;5.10;99.90;;;;;;5106361;28;19920;-78
2022/02/22 01:44:33;;;;;;;;;;;5.00;99.90;;;;;;5104520;28;19922;-79
2022/02/22 01:47:00;;;;;;;;;;;5.00;99.90;;;;;;5105637;28;20303;-79
2022/02/22 01:49:26;;;;;;;;;;;4.90;99.90;;;;;;5113493;28;19918;-78
2022/02/22 01:51:52;;;;;;;;;;;4.80;99.90;;;;;;5090391;28;19915;-79
2022/02/22 01:54:18;;;;;;;;;;;4.70;99.90;;;;;;5079087;28;19961;-80
2022/02/22 01:56:43;;;;;;;;;;;4.60;99.90;;;;;;5111287;28;19920;-79
2022/02/22 01:59:09;;;;;;;;;;;4.60;99.90;;;;;;5106563;28;19920;-78
2022/02/22 02:01:35;;;;;;;;;;;4.50;99.90;;;;;;5091920;28;19911;-80
2022/02/22 02:04:05;;;;;;;;;;;4.50;99.90;;;;;;5103297;28;19935;-80
2022/02/22 02:06:35;;;;;;;;;;;4.60;99.90;;;;;;5092880;28;19920;-79
2022/02/22 02:09:00;;;;;;;;;;;4.60;99.90;;;;;;5112336;28;19946;-80
2022/02/22 02:11:26;;;;;;;;;;;4.60;99.90;;;;;;5095432;28;19950;-79
2022/02/22 02:13:52;;;;;;;;;;;4.50;99.90;;;;;;5103735;28;20217;-79
2022/02/22 02:16:17;;;;;;;;;;;4.50;99.90;;;;;;5087887;28;19911;-79
2022/02/22 02:18:43;;;;;;;;;;;4.50;99.90;;;;;;5087770;28;19934;-78
2022/02/22 02:21:08;;;;;;;;;;;4.50;99.90;;;;;;5100288;28;19955;-78
2022/02/22 02:23:34;;;;;;;;;;;4.40;99.90;;;;;;5096815;28;19929;-78
2022/02/22 02:25:59;;;;;;;;;;;4.40;99.90;;;;;;5092586;28;19927;-79
2022/02/22 02:28:25;;;;;;;;;;;4.30;99.90;;;;;;5102641;28;19966;-80
2022/02/22 02:30:50;;;;;;;;;;;4.30;99.90;;;;;;5085540;28;19908;-78
2022/02/22 02:33:16;;;;;;;;;;;4.30;99.90;;;;;;5114537;28;19920;-79
2022/02/22 02:35:42;;;;;;;;;;;4.30;99.90;;;;;;5089681;28;19920;-78
2022/02/22 02:38:07;;;;;;;;;;;4.20;99.90;;;;;;5104606;28;19912;-78
2022/02/22 02:40:33;;;;;;;;;;;4.20;99.90;;;;;;5126478;28;19911;-78
2022/02/22 02:42:58;;;;;;;;;;;4.20;99.90;;;;;;5102601;28;19908;-78
2022/02/22 02:45:26;;;;;;;;;;;4.10;99.90;;;;;;5093008;28;19973;-78
2022/02/22 02:47:52;;;;;;;;;;;4.10;99.90;;;;;;5108509;28;19919;-79
2022/02/22 02:50:17;;;;;;;;;;;4.10;99.90;;;;;;5080647;28;20280;-79
2022/02/22 02:52:43;;;;;;;;;;;4.10;99.90;;;;;;5082716;28;19912;-79
2022/02/22 02:55:09;;;;;;;;;;;4.20;99.90;;;;;;5104496;28;19908;-78
2022/02/22 02:57:36;;;;;;;;;;;4.20;99.90;;;;;;5114722;28;19915;-79
2022/02/22 03:00:02;;;;;;;;;;;4.10;99.90;;;;;;5110444;28;20335;-78
2022/02/22 03:02:28;;;;;;;;;;;4.10;99.90;;;;;;5096013;28;19924;-78
2022/02/22 03:04:58;;;;;;;;;;;4.20;99.90;;;;;;5090241;28;19919;-79
2022/02/22 03:07:24;;;;;;;;;;;4.20;99.90;;;;;;5097971;28;19935;-78
2022/02/22 03:09:50;;;;;;;;;;;4.20;99.90;;;;;;5112497;28;19912;-80
2022/02/22 03:12:15;;;;;;;;;;;4.20;99.90;;;;;;5108133;28;19999;-79
2022/02/22 03:14:41;;;;;;;;;;;4.20;99.90;;;;;;5110499;28;19928;-78
2022/02/22 03:17:06;;;;;;;;;;;4.30;99.90;;;;;;5109835;28;19920;-78
2022/02/22 03:19:32;;;;;;;;;;;4.30;99.90;;;;;;5114178;28;19955;-79
2022/02/22 03:21:57;;;;;;;;;;;4.30;99.90;;;;;;5083383;28;19959;-78
2022/02/22 03:24:23;;;;;;;;;;;4.40;99.90;;;;;;5097392;28;20298;-78
2022/02/22 03:26:48;;;;;;;;;;;4.40;99.90;;;;;;5103018;28;20231;-79
2022/02/22 03:29:14;;;;;;;;;;;4.40;99.90;;;;;;5090067;28;19912;-79
2022/02/22 03:31:39;;;;;;;;;;;4.30;99.90;;;;;;5109573;28;20260;-78
2022/02/22 03:34:05;;;;;;;;;;;4.40;99.90;;;;;;5098629;28;19912;-77
2022/02/22 03:36:30;;;;;;;;;;;4.40;99.90;;;;;;5098823;28;19916;-78
2022/02/22 03:38:56;;;;;;;;;;;4.40;99.90;;;;;;5111845;28;19922;-79
2022/02/22 03:41:22;;;;;;;;;;;4.40;99.90;;;;;;5109077;28;19919;-78
2022/02/22 03:43:49;;;;;;;;;;;4.40;99.90;;;;;;5099270;28;20238;-78
2022/02/22 03:46:14;;;;;;;;;;;4.40;99.90;;;;;;5105875;28;19919;-78
2022/02/22 03:48:40;;;;;;;;;;;4.40;99.90;;;;;;5081489;28;19920;-78
2022/02/22 03:51:06;;;;;;;;;;;4.40;99.90;;;;;;5081863;28;20097;-79
2022/02/22 03:53:31;;;;;;;;;;;4.30;99.90;;;;;;5094729;28;19946;-78
2022/02/22 03:55:57;;;;;;;;;;;4.30;99.90;;;;;;5097618;28;20037;-78
2022/02/22 03:58:23;;;;;;;;;;;4.30;99.90;;;;;;5106605;28;20041;-79
2022/02/22 04:00:48;;;;;;;;;;;4.30;99.90;;;;;;5078462;28;19927;-79
2022/02/22 04:03:14;;;;;;;;;;;4.20;99.90;;;;;;5097374;28;19924;-78
2022/02/22 04:05:39;;;;;;;;;;;4.20;99.90;;;;;;5089727;28;19916;-78
2022/02/22 04:08:05;;;;;;;;;;;4.10;99.90;;;;;;5110067;28;20307;-78
2022/02/22 04:10:30;;;;;;;;;;;4.10;99.90;;;;;;5106539;28;19911;-78
2022/02/22 04:12:56;;;;;;;;;;;4.20;99.90;;;;;;5114843;28;20317;-78
2022/02/22 04:15:22;;;;;;;;;;;4.20;99.90;;;;;;5109415;28;19922;-78
2022/02/22 04:17:48;;;;;;;;;;;4.10;99.90;;;;;;5109863;28;19920;-79
2022/02/22 04:20:13;;;;;;;;;;;4.10;99.90;;;;;;5116767;28;19911;-79
2022/02/22 04:22:39;;;;;;;;;;;3.90;99.90;;;;;;5102954;28;20007;-78
2022/02/22 04:25:05;;;;;;;;;;;3.80;99.90;;;;;;5109068;28;20341;-79
2022/02/22 04:27:32;;;;;;;;;;;3.70;99.90;;;;;;5105247;28;19938;-79
2022/02/22 04:29:57;;;;;;;;;;;3.60;99.90;;;;;;5111576;28;19912;-78
2022/02/22 04:32:23;;;;;;;;;;;3.50;99.90;;;;;;5082262;28;19923;-78
2022/02/22 04:34:49;;;;;;;;;;;3.30;99.90;;;;;;5110557;28;20006;-79
2022/02/22 04:37:16;;;;;;;;;;;3.30;99.90;;;;;;5116078;28;19912;-79
2022/02/22 04:39:45;;;;;;;;;;;3.30;99.90;;;;;;5079815;28;19945;-79
2022/02/22 04:42:11;;;;;;;;;;;3.20;99.90;;;;;;5104614;28;19912;-78
2022/02/22 04:44:36;;;;;;;;;;;3.20;99.90;;;;;;5080277;28;20007;-78
2022/02/22 04:47:02;;;;;;;;;;;3.20;99.90;;;;;;5097536;28;20031;-78
2022/02/22 04:49:27;;;;;;;;;;;3.10;99.90;;;;;;5093972;28;19915;-79
2022/02/22 04:51:53;;;;;;;;;;;3.00;99.90;;;;;;5107012;28;19927;-78
2022/02/22 04:54:18;;;;;;;;;;;2.90;99.90;;;;;;5085433;28;19956;-79
2022/02/22 04:56:44;;;;;;;;;;;2.90;99.90;;;;;;5079870;28;19923;-79
2022/02/22 04:59:09;;;;;;;;;;;2.80;99.90;;;;;;5090667;28;20206;-78
2022/02/22 05:01:35;;;;;;;;;;;2.70;99.90;;;;;;5107843;22;20207;-79
2022/02/22 05:04:01;;;;;;;;;;;2.70;99.90;;;;;;5115937;28;20260;-79
2022/02/22 05:06:26;;;;;;;;;;;2.70;99.90;;;;;;5100076;28;19916;-80
2022/02/22 05:08:52;;;;;;;;;;;2.60;99.90;;;;;;5114352;28;19923;-79
2022/02/22 05:11:17;;;;;;;;;;;2.60;99.90;;;;;;5107135;28;19955;-80
2022/02/22 05:13:43;;;;;;;;;;;2.60;99.90;;;;;;5100955;28;19946;-78
2022/02/22 05:16:08;;;;;;;;;;;2.60;99.90;;;;;;5094782;28;19916;-79
2022/02/22 05:18:34;;;;;;;;;;;2.60;99.90;;;;;;5095347;28;19912;-79
2022/02/22 05:20:59;;;;;;;;;;;2.60;99.90;;;;;;5095816;28;19919;-79
2022/02/22 05:23:26;;;;;;;;;;;2.60;99.90;;;;;;5087537;28;19922;-79
2022/02/22 05:25:52;;;;;;;;;;;2.60;99.90;;;;;;5097017;28;19919;-79
2022/02/22 05:28:17;;;;;;;;;;;2.60;99.90;;;;;;5102062;28;19995;-78
2022/02/22 05:30:47;;;;;;;;;;;2.60;99.90;;;;;;5100635;28;19918;-80
2022/02/22 05:33:13;;;;;;;;;;;2.60;99.90;;;;;;5113704;28;19934;-79
2022/02/22 05:35:38;;;;;;;;;;;2.50;99.90;;;;;;5114427;28;20302;-79
2022/02/22 05:38:04;;;;;;;;;;;2.50;99.90;;;;;;5107567;28;20318;-80
2022/02/22 05:40:29;;;;;;;;;;;2.40;99.90;;;;;;5080117;28;19926;-80
2022/02/22 05:42:55;;;;;;;;;;;2.40;99.90;;;;;;5082012;28;19924;-81
2022/02/22 05:45:20;;;;;;;;;;;2.30;99.90;;;;;;5076802;28;19916;-79
2022/02/22 05:47:46;;;;;;;;;;;2.30;99.90;;;;;;5109550;28;19915;-79
2022/02/22 05:50:11;;;;;;;;;;;2.30;99.90;;;;;;5097940;28;19939;-80
2022/02/22 05:52:37;;;;;;;;;;;2.30;99.90;;;;;;5085783;28;19911;-80
2022/02/22 05:55:02;;;;;;;;;;;2.30;99.90;;;;;;5085078;28;19913;-80
2022/02/22 05:57:28;;;;;;;;;;;2.20;99.90;;;;;;5080227;28;19919;-81
2022/02/22 05:59:53;;;;;;;;;;;2.30;99.90;;;;;;5083803;28;20371;-79
2022/02/22 06:02:19;;;;;;;;;;;2.20;99.90;;;;;;5085148;28;20014;-81
2022/02/22 06:04:45;;;;;;;;;;;2.20;99.90;;;;;;5103670;28;20360;-80
2022/02/22 06:07:10;;;;;;;;;;;2.20;99.90;;;;;;5111232;28;20256;-79
2022/02/22 06:09:39;;;;;;;;;;;2.20;99.90;;;;;;5096644;28;19912;-80
2022/02/22 06:12:05;;;;;;;;;;;2.20;99.90;;;;;;5114769;28;19912;-79
2022/02/22 06:14:31;;;;;;;;;;;2.20;99.90;;;;;;5079356;28;20046;-80
2022/02/22 06:16:56;;;;;;;;;;;2.20;99.90;;;;;;5108860;28;20267;-80
2022/02/22 06:19:22;;;;;;;;;;;2.30;99.90;;;;;;5103907;28;19912;-79
2022/02/22 06:21:48;;;;;;;;;;;2.30;99.90;;;;;;5114574;28;19973;-80
2022/02/22 06:24:14;;;;;;;;;;;2.40;99.90;;;;;;5102917;28;20253;-80
2022/02/22 06:26:39;;;;;;;;;;;2.60;99.90;;;;;;5098622;28;20257;-80
2022/02/22 06:29:05;;;;;;;;;;;2.70;99.90;;;;;;5114721;28;19959;-80
2022/02/22 06:31:30;;;;;;;;;;;2.80;99.90;;;;;;5106180;28;19916;-80
2022/02/22 06:33:56;;;;;;;;;;;2.80;99.90;;;;;;5099121;28;19923;-80
2022/02/22 06:36:22;;;;;;;;;;;2.80;99.90;;;;;;5098475;28;19912;-80
2022/02/22 06:38:47;;;;;;;;;;;2.90;99.90;;;;;;5081222;28;19912;-82
2022/02/22 06:41:13;;;;;;;;;;;2.90;99.90;;;;;;5096369;28;19919;-82
2022/02/22 06:43:38;;;;;;;;;;;3.00;99.90;;;;;;5094269;28;19920;-79
2022/02/22 06:46:04;;;;;;;;;;;3.10;99.90;;;;;;5085958;28;20155;-80
2022/02/22 06:48:30;;;;;;;;;;;3.10;99.90;;;;;;5096752;28;19974;-80
2022/02/22 06:50:55;;;;;;;;;;;3.20;99.90;;;;;;5079162;28;19919;-78
2022/02/22 06:53:21;;;;;;;;;;;3.30;99.90;;;;;;5088065;22;20075;-78
2022/02/22 06:55:46;;;;;;;;;;;3.30;99.90;;;;;;5095796;28;19916;-78
2022/02/22 06:58:12;;;;;;;;;;;3.40;99.90;;;;;;5113374;28;19911;-78
2022/02/22 07:00:40;;;;;;;;;;;3.40;99.90;;;;;;5093377;28;19912;-78
2022/02/22 07:03:05;;;;;;;;;;;3.40;99.90;;;;;;5110037;28;19935;-79
2022/02/22 07:05:31;;;;;;;;;;;3.50;99.90;;;;;;5090089;28;20303;-78
2022/02/22 07:07:57;;;;;;;;;;;3.60;99.90;;;;;;5109833;28;19994;-79
2022/02/22 07:10:23;;;;;;;;;;;3.80;99.90;;;;;;5089560;28;19935;-79
2022/02/22 07:12:49;;;;;;;;;;;3.90;99.90;;;;;;5087526;28;19912;-78
2022/02/22 07:15:15;;;;;;;;;;;4.00;99.90;;;;;;5109684;28;20295;-78
2022/02/22 07:17:44;;;;;;;;;;;4.10;99.90;;;;;;5113176;28;19911;-80
2022/02/22 07:20:10;;;;;;;;;;;4.20;99.90;;;;;;5108357;28;19912;-79
2022/02/22 07:22:36;;;;;;;;;;;4.40;99.90;;;;;;5093075;28;19974;-78
2022/02/22 07:25:01;;;;;;;;;;;4.40;99.90;;;;;;5097832;28;19916;-79
2022/02/22 07:27:27;;;;;;;;;;;4.50;99.90;;;;;;5071764;28;19916;-79
2022/02/22 07:29:52;;;;;;;;;;;4.50;99.90;;;;;;5075529;28;19916;-78
2022/02/22 07:32:18;;;;;;;;;;;4.60;99.90;;;;;;5091552;28;19912;-78
2022/02/22 07:34:43;;;;;;;;;;;4.60;99.90;;;;;;5077353;28;19912;-78
2022/02/22 07:37:09;;;;;;;;;;;4.70;99.90;;;;;;5077612;28;19912;-79
2022/02/22 07:39:34;;;;;;;;;;;4.80;99.90;;;;;;5104977;28;20487;-80
2022/02/22 07:42:00;;;;;;;;;;;4.80;99.90;;;;;;5085897;28;19981;-77
2022/02/22 07:44:25;;;;;;;;;;;4.90;99.90;;;;;;5091053;28;20327;-79
2022/02/22 07:46:51;;;;;;;;;;;4.90;99.90;;;;;;5081199;28;19922;-80
2022/02/22 07:49:16;;;;;;;;;;;5.00;99.90;;;;;;5084568;28;19920;-79
2022/02/22 07:51:42;;;;;;;;;;;5.00;99.90;;;;;;5092143;28;19912;-79
2022/02/22 07:54:08;;;;;;;;;;;5.00;99.90;;;;;;5105487;28;20201;-79
2022/02/22 07:56:34;;;;;;;;;;;5.00;99.90;;;;;;5096513;28;19912;-79
2022/02/22 07:59:00;;;;;;;;;;;5.20;99.90;;;;;;5103514;28;19919;-81
2022/02/22 08:01:25;;;;;;;;;;;5.20;99.90;;;;;;5089660;28;20163;-78
2022/02/22 08:03:51;;;;;;;;;;;5.20;99.90;;;;;;5075006;28;20277;-78
2022/02/22 08:06:16;;;;;;;;;;;5.20;99.90;;;;;;5070280;28;19912;-79
2022/02/22 08:08:42;;;;;;;;;;;5.30;99.90;;;;;;5109568;28;19919;-79
2022/02/22 08:11:07;;;;;;;;;;;5.30;99.90;;;;;;5102403;28;19915;-77
2022/02/22 08:13:33;;;;;;;;;;;5.30;99.90;;;;;;5082938;28;19916;-79
2022/02/22 08:15:58;;;;;;;;;;;5.30;99.90;;;;;;5104958;28;19923;-78
2022/02/22 08:18:24;;;;;;;;;;;5.40;99.90;;;;;;5087591;28;20236;-78
2022/02/22 08:20:50;;;;;;;;;;;5.40;99.90;;;;;;5111086;28;20241;-77
2022/02/22 08:23:15;;;;;;;;;;;5.50;99.90;;;;;;5109233;28;19919;-79
2022/02/22 08:25:42;;;;;;;;;;;5.60;99.90;;;;;;5092490;28;20034;-78
2022/02/22 08:28:08;;;;;;;;;;;5.70;99.90;;;;;;5087029;28;20279;-78
2022/02/22 08:30:34;;;;;;;;;;;5.80;99.90;;;;;;5112006;28;20014;-78
2022/02/22 08:33:00;;;;;;;;;;;5.90;99.90;;;;;;5110738;28;20030;-78
2022/02/22 08:35:25;;;;;;;;;;;6.00;99.90;;;;;;5090583;28;20019;-78
2022/02/22 08:37:54;;;;;;;;;;;6.10;99.90;;;;;;5093236;28;20273;-79
2022/02/22 08:40:19;;;;;;;;;;;6.10;99.90;;;;;;5106322;28;19938;-80
2022/02/22 08:42:45;;;;;;;;;;;6.10;99.90;;;;;;5099782;28;20291;-78
2022/02/22 08:45:10;;;;;;;;;;;6.10;99.90;;;;;;5080803;28;19916;-80
2022/02/22 08:47:36;;;;;;;;;;;6.20;99.90;;;;;;5060381;28;20011;-79
2022/02/22 08:50:02;;;;;;;;;;;6.30;99.90;;;;;;5086979;28;19916;-80
2022/02/22 08:52:31;;;;;;;;;;;6.50;99.90;;;;;;5089690;28;19916;-81
2022/02/22 08:54:57;;;;;;;;;;;6.50;99.90;;;;;;5084154;28;20239;-80
2022/02/22 08:57:22;;;;;;;;;;;6.60;99.90;;;;;;5093021;28;19912;-80
2022/02/22 08:59:48;;;;;;;;;;;6.60;99.90;;;;;;5100183;28;19919;-80
2022/02/22 09:02:16;;;;;;;;;;;6.60;99.90;;;;;;5088778;28;20271;-79
2022/02/22 09:04:42;;;;;;;;;;;6.70;99.90;;;;;;5078706;28;19927;-78
2022/02/22 09:07:07;;;;;;;;;;;6.70;99.90;;;;;;5091310;28;19916;-80
2022/02/22 09:09:33;;;;;;;;;;;6.70;99.90;;;;;;5086236;28;19912;-80
2022/02/22 09:12:00;;;;;;;;;;;6.70;99.90;;;;;;5076340;28;19912;-81
2022/02/22 09:14:26;;;;;;;;;;;6.70;99.90;;;;;;5068342;28;19956;-78
2022/02/22 09:16:51;;;;;;;;;;;6.80;99.90;;;;;;5083530;28;20303;-80
2022/02/22 09:19:17;;;;;;;;;;;6.70;99.90;;;;;;5073114;28;19998;-79
2022/02/22 09:21:42;;;;;;;;;;;6.70;99.90;;;;;;5088028;28;19970;-78
2022/02/22 09:24:08;;;;;;;;;;;6.70;99.90;;;;;;5092526;28;20368;-79
2022/02/22 09:26:34;;;;;;;;;;;6.70;99.90;;;;;;5088248;28;20247;-81
2022/02/22 09:28:59;;;;;;;;;;;6.70;99.90;;;;;;5065090;28;19920;-78
2022/02/22 09:31:25;;;;;;;;;;;6.70;99.90;;;;;;5088213;28;19913;-78
2022/02/22 09:33:51;;;;;;;;;;;6.70;99.90;;;;;;5086575;28;19916;-80
2022/02/22 09:36:17;;;;;;;;;;;6.60;99.90;;;;;;5068805;28;20010;-79
2022/02/22 09:38:42;;;;;;;;;;;6.70;99.90;;;;;;5084718;28;20307;-80
2022/02/22 09:41:08;;;;;;;;;;;6.70;99.90;;;;;;5088502;28;20325;-79
2022/02/22 09:43:34;;;;;;;;;;;6.80;99.90;;;;;;5071414;28;19920;-79
2022/02/22 09:46:00;;;;;;;;;;;6.80;99.90;;;;;;5076669;28;19939;-79
2022/02/22 09:48:26;;;;;;;;;;;6.90;99.90;;;;;;5066190;28;20035;-77
2022/02/22 09:50:51;;;;;;;;;;;6.90;99.90;;;;;;5075104;28;20007;-78
2022/02/22 09:53:17;;;;;;;;;;;6.90;99.90;;;;;;5063380;28;19916;-79
2022/02/22 09:55:43;;;;;;;;;;;7.00;99.90;;;;;;5066073;28;20387;-78
2022/02/22 09:58:09;;;;;;;;;;;7.00;99.90;;;;;;5080238;28;20011;-77
2022/02/22 10:00:35;;;;;;;;;;;7.00;99.90;;;;;;5110221;28;19911;-77
2022/02/22 10:03:01;;;;;;;;;;;7.10;99.90;;;;;;5066466;28;20607;-77
2022/02/22 10:05:27;;;;;;;;;;;7.10;99.90;;;;;;5083645;28;20368;-79
2022/02/22 10:07:53;;;;;;;;;;;7.20;99.90;;;;;;5091252;28;20003;-78
2022/02/22 10:10:20;;;;;;;;;;;7.30;99.90;;;;;;5087811;28;19912;-79
2022/02/22 10:12:51;;;;;;;;;;;7.40;99.90;;;;;;5087699;28;19920;-78
2022/02/22 10:15:17;;;;;;;;;;;7.40;99.90;;;;;;5091275;28;20219;-78
2022/02/22 10:17:42;;;;;;;;;;;7.40;99.90;;;;;;5087425;28;19912;-79
2022/02/22 10:20:09;;;;;;;;;;;7.40;99.90;;;;;;5092837;28;19952;-77
2022/02/22 10:22:44;;;;;;;;;;;7.40;99.90;;;;;;5070681;28;20435;-78
2022/02/22 10:25:10;;;;;;;;;;;7.40;99.90;;;;;;5091509;28;20015;-80
2022/02/22 10:27:49;;;;;;;;;;;7.40;99.90;;;;;;5089395;28;20014;-80
2022/02/22 10:30:24;;;;;;;;;;;7.40;99.90;;;;;;5094233;28;19962;-79
2022/02/22 10:32:50;;;;;;;;;;;7.40;99.90;;;;;;5089935;28;19912;-80
2022/02/22 10:35:25;;;;;;;;;;;7.40;99.90;;;;;;5091484;28;19921;-78
2022/02/22 10:37:51;;;;;;;;;;;7.40;99.90;;;;;;5089647;28;19912;-78
2022/02/22 10:40:23;;;;;;;;;;;7.30;99.90;;;;;;5089218;28;20360;-79
2022/02/22 10:42:48;;;;;;;;;;;7.30;99.90;;;;;;5088606;28;19920;-79
2022/02/22 10:45:14;;;;;;;;;;;7.20;99.90;;;;;;5092072;28;21445;-79
2022/02/22 10:47:43;;;;;;;;;;;7.10;99.90;;;;;;5070233;28;20268;-80
2022/02/22 10:50:09;;;;;;;;;;;7.10;99.90;;;;;;5070166;28;20002;-78
2022/02/22 10:52:34;;;;;;;;;;;7.00;99.90;;;;;;5057162;28;20073;-79
2022/02/22 10:55:00;;;;;;;;;;;7.00;99.90;;;;;;5058304;28;19924;-78
2022/02/22 10:57:26;;;;;;;;;;;7.00;99.90;;;;;;5065723;28;20171;-77
2022/02/22 10:59:52;;;;;;;;;;;7.00;99.90;;;;;;5085071;28;20330;-80
2022/02/22 11:02:18;;;;;;;;;;;6.90;99.90;;;;;;5084652;28;19920;-79
2022/02/22 11:04:43;;;;;;;;;;;6.90;99.90;;;;;;5067785;28;19920;-79
2022/02/22 11:07:15;;;;;;;;;;;6.80;99.90;;;;;;5082245;28;19917;-79
2022/02/22 11:09:42;;;;;;;;;;;6.90;99.90;;;;;;5088657;28;20046;-81
2022/02/22 11:12:16;;;;;;;;;;;6.80;99.90;;;;;;5082036;28;19958;-78
2022/02/22 11:14:42;;;;;;;;;;;6.80;99.90;;;;;;5072213;28;19916;-80
2022/02/22 11:17:18;;;;;;;;;;;6.80;99.90;;;;;;5073324;28;19928;-79
2022/02/22 11:19:45;;;;;;;;;;;6.80;99.90;;;;;;5069628;28;19964;-82
2022/02/22 11:22:23;;;;;;;;;;;6.90;99.90;;;;;;5087121;28;19916;-79
2022/02/22 11:24:48;;;;;;;;;;;6.90;99.90;;;;;;5087823;28;19924;-79
2022/02/22 11:27:26;;;;;;;;;;;7.00;99.90;;;;;;5088496;28;20026;-81
2022/02/22 11:30:04;;;;;;;;;;;7.00;99.90;;;;;;5087618;28;19916;-83
2022/02/22 11:32:29;;;;;;;;;;;7.00;99.90;;;;;;5074982;28;20613;-79
2022/02/22 11:34:55;;;;;;;;;;;7.00;99.90;;;;;;5069779;28;20035;-80
2022/02/22 11:37:30;;;;;;;;;;;7.10;99.90;;;;;;5062370;28;19990;-79
2022/02/22 11:39:55;;;;;;;;;;;7.10;99.90;;;;;;5069365;28;19916;-80
2022/02/22 11:42:22;;;;;;;;;;;7.10;99.90;;;;;;5086750;28;20260;-79
2022/02/22 11:45:01;;;;;;;;;;;7.20;99.90;;;;;;5076501;28;19935;-79
2022/02/22 11:47:28;;;;;;;;;;;7.30;99.90;;;;;;5076153;28;19916;-81
2022/02/22 11:49:56;;;;;;;;;;;7.30;99.90;;;;;;5081527;28;19916;-80
2022/02/22 11:52:33;;;;;;;;;;;7.40;99.90;;;;;;5084580;28;19934;-81
2022/02/22 11:55:03;;;;;;;;;;;7.50;99.90;;;;;;5076776;28;20231;-78
2022/02/22 11:57:28;;;;;;;;;;;7.60;99.90;;;;;;5077120;28;19920;-78
2022/02/22 11:59:56;;;;;;;;;;;7.60;99.90;;;;;;5065467;28;19923;-80
2022/02/22 12:02:42;;;;;;;;;;;7.70;99.90;;;;;;5083591;28;20263;-78
2022/02/22 12:05:27;;;;;;;;;;;7.70;99.90;;;;;;5077635;28;19916;-80
2022/02/22 12:08:14;;;;;;;;;;;7.80;99.90;;;;;;5088603;28;19912;-78
2022/02/22 12:10:57;;;;;;;;;;;7.80;99.90;;;;;;5071181;28;20364;-80
2022/02/22 12:13:24;;;;;;;;;;;7.80;99.90;;;;;;5088457;28;19912;-78
2022/02/22 12:15:51;;;;;;;;;;;7.80;99.90;;;;;;5088690;28;19916;-80
2022/02/22 12:18:25;;;;;;;;;;;7.90;99.90;;;;;;5067527;28;20356;-80
2022/02/22 12:20:54;;;;;;;;;;;7.90;99.90;;;;;;5066517;28;20088;-80
2022/02/22 12:23:21;;;;;;;;;;;8.00;99.90;;;;;;5085728;28;19927;-79
2022/02/22 12:25:47;;;;;;;;;;;8.20;99.90;;;;;;5087657;28;19978;-77
2022/02/22 12:28:13;;;;;;;;;;;8.30;99.90;;;;;;5085294;28;19916;-78
2022/02/22 12:30:39;;;;;;;;;;;8.40;99.90;;;;;;5081919;28;19920;-79
2022/02/22 12:33:06;;;;;;;;;;;8.50;99.90;;;;;;5069106;28;19913;-78
2022/02/22 12:35:32;;;;;;;;;;;8.60;99.90;;;;;;5067853;28;20325;-78
2022/02/22 12:37:58;;;;;;;;;;;8.60;99.90;;;;;;5068191;28;19920;-79
2022/02/22 12:40:31;;;;;;;;;;;8.70;99.90;;;;;;5082565;28;19919;-81
2022/02/22 12:43:07;;;;;;;;;;;8.80;99.90;;;;;;5084294;28;19926;-78
2022/02/22 12:45:51;;;;;;;;;;;8.80;99.90;;;;;;5084178;28;19935;-80
2022/02/22 12:48:18;;;;;;;;;;;8.80;99.90;;;;;;5083166;28;19920;-81
2022/02/22 12:50:51;;;;;;;;;;;8.90;99.90;;;;;;5083877;28;19920;-80
2022/02/22 12:53:23;;;;;;;;;;;8.90;99.90;;;;;;5067165;28;19920;-78
2022/02/22 12:55:48;;;;;;;;;;;8.90;99.90;;;;;;5065500;28;19923;-78
2022/02/22 12:58:14;;;;;;;;;;;8.90;99.90;;;;;;5074215;28;19912;-80
2022/02/22 13:00:40;;;;;;;;;;;9.00;99.90;;;;;;5085332;28;19962;-80
2022/02/22 13:03:15;;;;;;;;;;;9.10;99.90;;;;;;5069231;28;20230;-79
2022/02/22 13:05:42;;;;;;;;;;;9.20;99.90;;;;;;5087255;28;19916;-80
2022/02/22 13:08:09;;;;;;;;;;;9.30;99.90;;;;;;5060829;28;19956;-78
2022/02/22 13:10:44;;;;;;;;;;;9.30;99.90;;;;;;5087746;28;19915;-79
2022/02/22 13:13:10;;;;;;;;;;;9.40;99.90;;;;;;5067010;28;20368;-80
2022/02/22 13:15:36;;;;;;;;;;;9.50;99.90;;;;;;5066230;28;20011;-80
2022/02/22 13:18:11;;;;;;;;;;;9.50;99.90;;;;;;5065569;28;20379;-79
2022/02/22 13:20:43;;;;;;;;;;;9.50;99.90;;;;;;5067623;28;19966;-78
2022/02/22 13:23:11;;;;;;;;;;;9.50;99.90;;;;;;5087795;28;19948;-78
2022/02/22 13:25:41;;;;;;;;;;;9.50;99.90;;;;;;5062859;28;19923;-79
2022/02/22 13:28:07;;;;;;;;;;;9.50;99.90;;;;;;5071285;28;19966;-78
2022/02/22 13:30:33;;;;;;;;;;;9.60;99.90;;;;;;5086455;28;19922;-79
2022/02/22 13:33:10;;;;;;;;;;;9.60;99.90;;;;;;5087761;28;20295;-78
2022/02/22 13:35:36;;;;;;;;;;;9.60;99.90;;;;;;5071935;28;19920;-81
2022/02/22 13:38:02;;;;;;;;;;;9.60;99.90;;;;;;5068899;28;19997;-78
2022/02/22 13:40:30;;;;;;;;;;;9.60;99.90;;;;;;5083376;28;19916;-78
2022/02/22 13:43:00;;;;;;;;;;;9.60;99.90;;;;;;5069598;28;19963;-80
2022/02/22 13:45:28;;;;;;;;;;;9.70;99.90;;;;;;5065188;28;19916;-81
2022/02/22 13:47:59;;;;;;;;;;;9.70;99.90;;;;;;5094363;28;19923;-80
2022/02/22 13:50:25;;;;;;;;;;;9.70;99.90;;;;;;5073640;28;19923;-80
2022/02/22 13:52:54;;;;;;;;;;;9.70;99.90;;;;;;5065928;28;19948;-80
2022/02/22 13:55:20;;;;;;;;;;;9.80;99.90;;;;;;5064640;28;20036;-79
2022/02/22 13:57:47;;;;;;;;;;;9.80;99.90;;;;;;5092004;28;20302;-80
2022/02/22 14:00:13;;;;;;;;;;;9.80;99.90;;;;;;5079651;28;19912;-81
2022/02/22 14:02:39;;;;;;;;;;;9.80;99.90;;;;;;5075746;28;19924;-82
2022/02/22 14:05:06;;;;;;;;;;;9.90;99.90;;;;;;5086213;28;20272;-82
2022/02/22 14:07:32;;;;;;;;;;;9.80;99.90;;;;;;5090769;28;19920;-80
2022/02/22 14:09:57;;;;;;;;;;;9.80;99.90;;;;;;5063998;28;19912;-81
2022/02/22 14:12:24;;;;;;;;;;;9.90;99.90;;;;;;5078366;28;19919;-79
2022/02/22 14:14:50;;;;;;;;;;;9.80;99.90;;;;;;5061885;28;19919;-80
2022/02/22 14:17:16;;;;;;;;;;;9.80;99.90;;;;;;5066343;28;19913;-82
2022/02/22 14:19:41;;;;;;;;;;;9.80;99.90;;;;;;5082529;28;19954;-79
2022/02/22 14:22:07;;;;;;;;;;;9.80;99.90;;;;;;5095479;28;19966;-81
2022/02/22 14:24:32;;;;;;;;;;;9.90;99.90;;;;;;5102040;28;20006;-80
2022/02/22 14:26:59;;;;;;;;;;;10.00;99.90;;;;;;5103641;28;19961;-82